Terminal Aerodrome Forecast
Issued by NWS

Home | Current Version | Previous Version | Text Only | Print | Product List | Glossary On
Versions: 1 2 3 4 5 6 7 8 9 10 11 12 13 14 15 16 17 18
000
FTUS45 KRIW 011100
TAFCPR
TAF
KCPR 011140Z 0112/0212 02008KT P6SM -SHRA SCT025 OVC040
     FM011500 02011KT P6SM -SHRA SCT014 OVC025
     FM012100 36008KT P6SM VCSH SCT020 BKN040
     FM020100 33007KT P6SM VCSH BKN050
     FM020600 24007KT P6SM SCT050=

USA.gov is the U.S. government's official web portal to all federal, state and local government web resources and services.